TAF and METAR

Decoding for American and Canadian METARs and TAFs is not fully implemented.

Could not understand the following METAR

KEED 170256Z AUTO 24014KT 10SM CLR 42/M04 A2966 RMK AO2 SLP001 T04221044 53005

TAF for Needles Airport

KEED 162320Z 1700/1724 20016G25KT P6SM SKC FM170300 24011KT P6SM SKC FM170700 19008KT P6SM SKC FM171700 18012G20KT P6SM SKC
Report created 17. jul 01:20

between 17. jul 02:00 - 17. jul 02:00

wind 16 knots from SSW (200°) with gusts up to 25 knots